Time;durP1;ratioP1;P1;durP2;ratioP2;P2;SDS_P1;SDS_P2;PMS_P1;PMS_P2;Temp;Humidity;BMP_temperature;BMP_pressure;BME280_temperature;BME280_humidity;BME280_pressure;Samples;Min_cycle;Max_cycle;Signal;HPM_P1;HPM_P2
2022/06/14 08:02:36;;;;;;;6.97;2.88;;;;;;;23.32;40.65;99991.63;4146958;28;21959;-68
2022/06/14 08:04:45;;;;;;;5.07;2.30;;;;;;;23.57;40.25;99987.84;4160061;28;20250;-68
2022/06/14 08:06:58;;;;;;;4.93;2.38;;;;;;;23.56;40.16;99997.03;4160993;28;20714;-68
2022/06/14 08:09:23;;;;;;;5.55;2.10;;;;;;;23.90;40.08;99981.69;4150245;28;20228;-68
2022/06/14 08:12:10;;;;;;;3.78;2.20;;;;;;;23.22;40.69;100001.44;4146991;28;20307;-68
2022/06/14 08:14:23;;;;;;;4.60;2.30;;;;;;;23.65;39.99;99981.19;4152957;28;20748;-68
2022/06/14 08:16:27;;;;;;;5.75;2.35;;;;;;;23.64;39.73;99990.44;4163951;28;20232;-68
2022/06/14 08:19:01;;;;;;;4.38;2.45;;;;;;;23.55;40.20;100000.78;4169976;28;20236;-68
2022/06/14 08:21:18;;;;;;;6.03;2.22;;;;;;;23.74;39.16;99977.06;4159903;28;20262;-68
2022/06/14 08:23:48;;;;;;;6.72;2.35;;;;;;;23.29;39.34;99989.38;4170028;28;20331;-68
2022/06/14 08:26:22;;;;;;;4.57;2.25;;;;;;;23.73;39.44;99997.13;4166836;28;20366;-68
2022/06/14 08:29:10;;;;;;;3.28;2.72;;;;;;;23.39;39.30;100005.88;4169822;28;20378;-68
2022/06/14 08:32:00;;;;;;;5.45;2.30;;;;;;;24.20;38.23;99974.41;4164967;28;20340;-68
2022/06/14 08:34:36;;;;;;;6.40;2.40;;;;;;;24.20;39.76;99994.25;4163429;28;20286;-68
2022/06/14 08:37:08;;;;;;;5.30;2.65;;;;;;;24.22;39.94;99980.41;4160997;28;20231;-68
2022/06/14 08:39:39;;;;;;;7.40;2.92;;;;;;;23.92;38.64;99968.72;4149149;28;20966;-68
2022/06/14 08:42:05;;;;;;;4.20;2.20;;;;;;;24.17;38.49;99978.44;4166052;28;20238;-68
2022/06/14 08:44:39;;;;;;;5.57;2.53;;;;;;;24.42;38.60;99966.38;4167355;28;20263;-68
2022/06/14 08:47:34;;;;;;;5.40;2.38;;;;;;;24.43;39.21;99968.00;4164474;28;20267;-68
2022/06/14 08:50:40;;;;;;;6.57;2.88;;;;;;;24.60;38.29;99974.28;4149942;28;20227;-68
2022/06/14 08:53:56;;;;;;;6.15;2.75;;;;;;;24.42;39.12;99978.06;4151892;28;20723;-68
2022/06/14 08:56:37;;;;;;;6.53;2.78;;;;;;;23.97;39.31;99972.59;4166388;28;20285;-68
2022/06/14 08:59:45;;;;;;;7.13;3.05;;;;;;;24.67;37.90;99966.78;4159941;28;20611;-68
2022/06/14 09:02:32;;;;;;;5.82;2.50;;;;;;;24.62;38.66;99961.25;4164272;28;20231;-68
2022/06/14 09:05:25;;;;;;;4.90;2.78;;;;;;;24.77;39.09;99957.19;4162786;28;20251;-68
2022/06/14 09:08:22;;;;;;;3.63;2.17;;;;;;;24.50;38.99;99946.94;4163293;28;20655;-68
2022/06/14 09:11:09;;;;;;;4.82;2.40;;;;;;;24.77;38.64;99954.47;4170610;28;20282;-68
2022/06/14 09:14:06;;;;;;;5.55;2.55;;;;;;;25.10;38.70;99945.41;4171129;28;20267;-68
2022/06/14 09:16:53;;;;;;;3.10;2.50;;;;;;;25.77;37.99;99933.44;4167888;28;20223;-68
2022/06/14 09:19:37;;;;;;;9.85;2.35;;;;;;;25.32;38.03;99948.13;4169805;28;21011;-68
2022/06/14 09:22:18;;;;;;;4.43;2.30;;;;;;;24.96;38.40;99946.84;4160261;28;20319;-68
2022/06/14 09:25:20;;;;;;;4.47;2.30;;;;;;;25.63;36.82;99931.38;4169163;28;20239;-68
2022/06/14 09:28:18;;;;;;;4.28;2.78;;;;;;;25.22;37.74;99953.44;4167892;28;20242;-68
2022/06/14 09:31:21;;;;;;;7.20;2.90;;;;;;;25.05;37.73;99958.94;4109028;28;20239;-68
2022/06/14 09:34:04;;;;;;;5.32;2.70;;;;;;;23.99;38.55;99957.72;4164519;28;20234;-68
2022/06/14 09:36:59;;;;;;;7.30;2.17;;;;;;;25.73;38.29;99932.34;4169085;28;20227;-68
2022/06/14 09:39:30;;;;;;;4.95;2.47;;;;;;;25.85;37.67;99947.72;4164645;28;20276;-68
2022/06/14 09:42:17;;;;;;;4.63;2.28;;;;;;;25.97;37.36;99930.16;4162547;28;20254;-67
2022/06/14 09:44:45;;;;;;;7.20;2.35;;;;;;;25.84;36.21;99949.59;4166156;28;20278;-68
2022/06/14 09:47:39;;;;;;;6.10;3.35;;;;;;;25.57;37.09;99933.22;4166165;28;20695;-68
2022/06/14 09:50:27;;;;;;;5.68;3.05;;;;;;;25.73;37.16;99937.78;4164152;28;20270;-68
2022/06/14 09:53:30;;;;;;;4.65;2.45;;;;;;;26.16;37.28;99930.59;4168789;28;20315;-68
2022/06/14 09:55:59;;;;;;;2.72;2.10;;;;;;;25.77;36.35;99938.91;4163340;28;20227;-68
2022/06/14 09:58:27;;;;;;;5.40;2.88;;;;;;;25.97;37.38;99932.06;4165795;28;20644;-68
2022/06/14 10:01:25;;;;;;;4.10;2.58;;;;;;;25.65;36.08;99937.41;4160845;28;20232;-68
2022/06/14 10:04:22;;;;;;;4.70;2.58;;;;;;;26.59;36.85;99924.41;4167567;28;20265;-68
2022/06/14 10:07:37;;;;;;;4.55;2.15;;;;;;;26.96;35.63;99920.84;4165219;28;20239;-68
2022/06/14 10:10:53;;;;;;;4.15;2.10;;;;;;;26.38;35.99;99928.88;4165365;28;20255;-68
2022/06/14 10:14:08;;;;;;;3.65;2.10;;;;;;;26.71;36.55;99925.88;4155752;28;20226;-68
2022/06/14 10:17:23;;;;;;;5.50;2.03;;;;;;;26.78;35.62;99919.38;4169388;28;20319;-68
2022/06/14 10:20:38;;;;;;;4.45;2.40;;;;;;;26.34;36.61;99915.75;4171052;28;20238;-68
2022/06/14 10:23:55;;;;;;;4.25;2.10;;;;;;;26.82;35.33;99910.38;4165397;28;20247;-68
2022/06/14 10:30:46;;;;;;;6.07;2.17;;;;;;;27.09;34.58;99890.38;4171686;28;20780;-68
2022/06/14 10:34:03;;;;;;;4.05;2.70;;;;;;;27.31;34.17;99901.09;4137770;28;20799;-68
2022/06/14 10:37:19;;;;;;;4.47;2.10;;;;;;;27.67;34.82;99905.88;4159779;28;20296;-68
2022/06/14 10:40:35;;;;;;;4.43;2.30;;;;;;;26.34;35.03;99913.03;4166945;28;20611;-68
2022/06/14 10:43:50;;;;;;;3.00;2.15;;;;;;;26.48;36.20;99898.97;4167490;28;20613;-68
2022/06/14 10:47:07;;;;;;;6.53;2.38;;;;;;;27.29;36.16;99897.03;4157915;28;20223;-68
2022/06/14 10:50:23;;;;;;;4.88;2.38;;;;;;;27.82;34.52;99875.88;4166339;28;20230;-68
2022/06/14 10:53:39;;;;;;;5.72;2.33;;;;;;;27.71;34.80;99885.16;4167063;28;20246;-68
2022/06/14 10:56:54;;;;;;;3.63;2.17;;;;;;;27.84;35.36;99887.38;4162249;28;20239;-68
2022/06/14 11:00:10;;;;;;;6.78;3.38;;;;;;;27.87;35.53;99884.09;4159779;28;20254;-68
2022/06/14 12:58:26;;;;;;;3.72;2.10;;;;;;;28.09;32.74;99727.19;4197883;28;20286;-67
2022/06/14 13:00:40;;;;;;;3.78;2.22;;;;;;;28.72;32.03;99710.38;4194051;28;20227;-67
2022/06/14 13:02:51;;;;;;;3.45;1.90;;;;;;;28.00;32.49;99718.75;4195852;28;20239;-67
2022/06/14 13:05:15;;;;;;;5.28;2.00;;;;;;;28.92;34.14;99710.25;4194462;28;20227;-67
2022/06/14 13:07:27;;;;;;;4.28;2.50;;;;;;;29.26;32.94;99717.72;4192567;28;20739;-66
2022/06/14 13:09:38;;;;;;;3.80;2.30;;;;;;;29.19;32.52;99730.06;4192098;28;20230;-66
2022/06/14 13:12:05;;;;;;;3.85;2.00;;;;;;;29.12;32.19;99722.19;4187699;28;20300;-67
2022/06/14 13:14:17;;;;;;;5.03;2.40;;;;;;;29.26;32.12;99704.03;4189517;28;20361;-68
2022/06/14 13:16:19;;;;;;;5.78;2.45;;;;;;;29.07;31.82;99716.75;4189023;28;20281;-68
2022/06/14 13:18:31;;;;;;;3.30;1.80;;;;;;;28.98;32.04;99708.28;4196344;28;20250;-67
2022/06/14 13:21:08;;;;;;;4.18;2.45;;;;;;;29.19;32.45;99706.25;4187927;28;21049;-67
2022/06/14 13:23:37;;;;;;;3.45;2.05;;;;;;;28.41;33.07;99696.81;4187830;28;20319;-68
2022/06/14 13:26:14;;;;;;;3.65;2.10;;;;;;;28.67;32.00;99704.88;4188044;28;20296;-68
2022/06/14 13:28:45;;;;;;;4.10;2.55;;;;;;;29.39;31.54;99691.59;4189351;28;20233;-68
2022/06/14 13:31:16;;;;;;;4.55;1.88;;;;;;;28.62;32.94;99696.72;4177630;28;20285;-68
2022/06/14 13:34:15;;;;;;;6.78;1.92;;;;;;;28.62;31.50;99699.44;4174300;28;20338;-68
2022/06/14 13:37:00;;;;;;;4.82;2.08;;;;;;;28.91;31.15;99697.66;4189066;28;20245;-68
2022/06/14 13:39:37;;;;;;;3.63;2.20;;;;;;;29.00;32.39;99705.25;4185892;28;20234;-68
2022/06/14 13:42:29;;;;;;;5.40;1.95;;;;;;;28.32;31.69;99691.06;4190838;28;20249;-67
2022/06/14 13:45:39;;;;;;;4.88;2.03;;;;;;;28.73;32.89;99688.19;4186183;28;20234;-69
2022/06/14 13:48:21;;;;;;;4.30;2.45;;;;;;;28.59;32.43;99672.66;4186792;28;20281;-67
2022/06/14 13:51:03;;;;;;;2.80;2.15;;;;;;;29.07;32.04;99668.28;4190010;28;20257;-68
2022/06/14 13:53:44;;;;;;;4.22;2.08;;;;;;;28.64;32.01;99664.41;4189085;28;20307;-67
2022/06/14 13:56:14;;;;;;;3.83;2.20;;;;;;;29.02;32.67;99653.81;4184180;28;21041;-68
2022/06/14 13:58:51;;;;;;;5.95;2.20;;;;;;;28.71;31.94;99659.47;4190501;28;20231;-68
2022/06/14 14:01:24;;;;;;;3.20;2.30;;;;;;;29.04;31.61;99657.91;4190321;28;20226;-67
2022/06/14 14:03:49;;;;;;;5.82;2.45;;;;;;;29.09;32.12;99655.13;4194063;28;20271;-67
2022/06/14 14:06:30;;;;;;;4.18;2.15;;;;;;;29.88;31.07;99658.84;4195091;28;20973;-68
2022/06/14 14:09:08;;;;;;;3.08;2.25;;;;;;;29.30;31.70;99660.44;4192882;28;20497;-67
2022/06/14 14:11:49;;;;;;;3.70;2.40;;;;;;;29.36;31.85;99645.63;4187922;28;20734;-68
2022/06/14 14:14:36;;;;;;;2.38;1.90;;;;;;;29.65;31.85;99651.09;4194634;28;20313;-67
2022/06/14 14:17:04;;;;;;;4.60;2.20;;;;;;;28.48;32.66;99644.56;4186054;28;20438;-67
2022/06/14 14:19:54;;;;;;;4.82;2.60;;;;;;;29.46;31.64;99633.75;4193904;28;20222;-67
2022/06/14 14:22:34;;;;;;;2.13;1.92;;;;;;;28.89;32.03;99628.72;4193203;28;21007;-67
2022/06/14 14:25:04;;;;;;;4.78;2.10;;;;;;;29.59;31.75;99624.88;4184697;28;20299;-67
2022/06/14 14:27:34;;;;;;;5.85;2.20;;;;;;;29.30;31.99;99624.84;4180506;28;20242;-67
2022/06/14 14:30:24;;;;;;;4.88;2.60;;;;;;;29.04;31.68;99627.78;4165872;28;20227;-67
2022/06/14 14:33:01;;;;;;;3.88;1.75;;;;;;;29.53;32.15;99611.50;4177835;28;20234;-67
2022/06/14 14:35:56;;;;;;;4.78;2.45;;;;;;;28.88;31.84;99615.31;4176079;28;20280;-68
2022/06/14 14:38:31;;;;;;;5.95;2.10;;;;;;;29.61;32.07;99602.66;4186219;28;20262;-68
2022/06/14 14:41:33;;;;;;;3.30;2.10;;;;;;;29.12;32.46;99618.16;4186659;28;20268;-67
2022/06/14 14:44:03;;;;;;;4.85;2.30;;;;;;;30.00;32.34;99612.66;4183570;28;20229;-68
2022/06/14 14:46:34;;;;;;;3.03;2.25;;;;;;;29.79;31.95;99615.66;4180541;28;20291;-68
2022/06/14 14:49:05;;;;;;;2.85;2.03;;;;;;;29.78;32.01;99610.47;4165016;28;20231;-68
2022/06/14 14:51:40;;;;;;;4.75;2.50;;;;;;;29.21;32.58;99610.16;4195675;28;20812;-68
2022/06/14 14:54:15;;;;;;;7.05;2.20;;;;;;;29.46;31.72;99615.41;4188104;28;20247;-68
2022/06/14 14:56:51;;;;;;;3.45;2.55;;;;;;;29.17;31.88;99607.16;4191932;28;20599;-68
2022/06/14 14:59:39;;;;;;;3.83;2.28;;;;;;;29.41;32.26;99601.75;4174413;28;20226;-68
2022/06/14 15:05:33;;;;;;;6.28;2.33;;;;;;;29.78;31.93;99589.34;4188709;28;20794;-68
2022/06/14 15:08:13;;;;;;;3.67;2.00;;;;;;;29.87;31.63;99594.19;4188414;28;20628;-67
2022/06/14 15:11:14;;;;;;;5.32;2.25;;;;;;;29.22;31.96;99584.41;4186330;28;20237;-68
2022/06/14 15:13:43;;;;;;;3.72;2.65;;;;;;;29.88;31.32;99588.41;4157994;28;20229;-68
2022/06/14 15:16:30;;;;;;;4.50;2.13;;;;;;;30.19;30.83;99585.28;4188189;28;20231;-67
2022/06/14 15:22:17;;;;;;;4.20;2.65;;;;;;;29.62;31.92;99596.06;4169199;28;20238;-67
2022/06/14 15:24:58;;;;;;;3.35;2.40;;;;;;;29.17;31.60;99598.09;4180978;28;20229;-68
2022/06/14 15:27:40;;;;;;;4.32;2.28;;;;;;;29.16;31.76;99586.34;4188983;28;20233;-68
2022/06/14 15:30:08;;;;;;;8.02;2.55;;;;;;;29.66;31.28;99581.50;4188138;28;20222;-68
2022/06/14 15:32:34;;;;;;;5.60;2.55;;;;;;;29.19;31.60;99576.75;4187103;28;20225;-67
2022/06/14 15:35:17;;;;;;;4.00;2.25;;;;;;;29.54;31.68;99572.88;4187691;28;20229;-68
2022/06/14 15:38:02;;;;;;;4.88;2.55;;;;;;;30.31;31.05;99568.41;4184593;28;20249;-66
2022/06/14 15:40:27;;;;;;;3.00;2.13;;;;;;;29.66;31.16;99570.53;4192094;28;20226;-68
2022/06/14 15:43:09;;;;;;;6.00;2.03;;;;;;;30.16;31.01;99564.72;4187138;28;20263;-68
2022/06/14 15:45:40;;;;;;;5.05;2.10;;;;;;;29.23;31.12;99567.69;4195176;28;20306;-68
2022/06/14 15:48:31;;;;;;;4.15;2.17;;;;;;;29.92;30.87;99544.78;4185207;28;20310;-67
2022/06/14 15:51:05;;;;;;;5.30;2.08;;;;;;;30.49;30.79;99575.84;4198702;28;20625;-68
2022/06/14 15:53:37;;;;;;;6.15;2.17;;;;;;;30.32;31.34;99553.59;4195372;28;20331;-68
2022/06/14 15:56:06;;;;;;;2.92;1.70;;;;;;;30.03;31.32;99563.53;4202096;28;20365;-68
2022/06/14 15:58:46;;;;;;;1282.35;614.05;;;;;;;29.49;32.17;99548.28;4199081;28;20229;-68
2022/06/14 16:01:23;;;;;;;177.82;12.50;;;;;;;29.87;31.19;99542.13;4191755;28;20273;-68
2022/06/14 16:04:13;;;;;;;2.92;1.70;;;;;;;30.45;30.93;99528.19;4192857;28;20262;-67
2022/06/14 16:06:44;;;;;;;6.70;1.73;;;;;;;30.44;31.32;99531.22;4191746;28;20918;-68
2022/06/14 16:09:25;;;;;;;3.03;1.70;;;;;;;29.74;31.60;99533.47;4192641;28;20261;-68
2022/06/14 16:11:56;;;;;;;3.30;1.65;;;;;;;29.88;31.19;99540.97;4190467;28;20245;-67
2022/06/14 16:14:23;;;;;;;2.95;1.58;;;;;;;30.16;31.53;99544.72;4195318;28;20231;-67
2022/06/14 16:16:58;;;;;;;3.08;1.80;;;;;;;29.90;30.95;99531.38;4193573;28;20365;-67
2022/06/14 16:19:40;;;;;;;1.70;1.52;;;;;;;29.92;31.25;99534.63;4184564;28;20392;-68
2022/06/14 16:22:12;;;;;;;6.57;2.47;;;;;;;29.27;31.45;99533.16;4188069;28;20258;-67
2022/06/14 16:24:41;;;;;;;6.22;1.90;;;;;;;29.91;30.68;99519.31;4187580;28;20301;-67
2022/06/14 16:27:22;;;;;;;7.63;2.00;;;;;;;29.77;31.12;99532.09;4188041;28;20318;-67
2022/06/14 16:30:13;;;;;;;7.20;2.03;;;;;;;30.06;31.11;99520.19;4187499;28;20228;-67
2022/06/14 16:32:57;;;;;;;3.63;1.92;;;;;;;29.59;31.52;99523.50;4184472;28;20785;-67
2022/06/14 16:35:35;;;;;;;5.80;2.10;;;;;;;29.77;31.64;99512.91;4189605;28;20310;-68
2022/06/14 16:38:25;;;;;;;2.13;1.60;;;;;;;29.45;31.58;99508.88;4188300;28;20309;-68
2022/06/14 16:41:16;;;;;;;4.85;1.88;;;;;;;29.40;31.21;99514.41;4192424;28;20234;-68
2022/06/14 16:43:54;;;;;;;3.08;1.75;;;;;;;29.27;31.37;99497.56;4192599;28;20240;-68
2022/06/14 16:46:54;;;;;;;3.00;1.75;;;;;;;29.92;31.37;99506.41;4192943;28;20277;-67
2022/06/14 16:49:39;;;;;;;6.47;1.90;;;;;;;29.15;31.50;99501.78;4196236;28;20242;-68
2022/06/14 16:52:17;;;;;;;1.65;1.55;;;;;;;29.75;31.34;99494.03;4189166;28;20249;-67
2022/06/14 16:55:06;;;;;;;4.30;2.35;;;;;;;29.27;32.19;99497.56;4196613;28;20332;-67
2022/06/14 16:57:49;;;;;;;4.88;1.83;;;;;;;29.77;31.31;99488.25;4194549;28;20314;-68
2022/06/14 17:00:29;;;;;;;4.43;2.03;;;;;;;29.00;31.92;99500.84;4189039;28;21036;-72
2022/06/14 17:03:23;;;;;;;3.60;2.00;;;;;;;30.06;31.68;99492.78;4190818;28;20644;-71
2022/06/14 17:06:04;;;;;;;2.08;1.63;;;;;;;30.02;31.27;99504.34;4194333;28;20322;-71
2022/06/14 17:08:59;;;;;;;5.05;2.47;;;;;;;29.84;31.21;99492.28;4189755;28;20234;-71
2022/06/14 17:11:44;;;;;;;3.03;2.22;;;;;;;29.77;31.17;99486.31;4184038;28;20222;-71
2022/06/14 17:14:18;;;;;;;3.00;1.83;;;;;;;29.97;31.20;99496.19;4189530;28;20237;-73
2022/06/14 17:17:05;;;;;;;3.75;2.10;;;;;;;29.32;31.49;99490.41;4193334;28;20301;-72
2022/06/14 17:19:36;;;;;;;3.90;1.60;;;;;;;30.12;31.16;99484.19;4188964;28;20241;-67
2022/06/14 17:22:08;;;;;;;3.92;1.83;;;;;;;29.51;32.28;99491.28;4189274;28;20743;-67
2022/06/14 17:24:37;;;;;;;8.02;2.30;;;;;;;29.66;32.15;99466.44;4191002;28;20647;-67
2022/06/14 17:30:11;;;;;;;4.50;2.60;;;;;;;29.79;32.85;99469.59;4177057;28;20314;-68
2022/06/14 17:32:37;;;;;;;2.75;2.22;;;;;;;30.58;32.05;99474.47;4193282;28;20253;-69
2022/06/14 17:35:08;;;;;;;2.60;1.90;;;;;;;30.15;32.84;99478.13;4176327;28;20601;-68
2022/06/14 17:37:56;;;;;;;3.53;2.05;;;;;;;30.62;31.82;99466.44;4172561;28;20607;-68
2022/06/14 17:40:22;;;;;;;4.55;2.50;;;;;;;29.96;31.94;99477.28;4181050;28;20289;-68
2022/06/14 17:43:12;;;;;;;4.20;2.17;;;;;;;30.14;31.82;99464.72;4190464;28;20265;-69
2022/06/14 17:45:44;;;;;;;2.88;2.30;;;;;;;29.94;32.48;99458.41;4167462;28;20317;-68
2022/06/14 17:48:24;;;;;;;3.53;2.28;;;;;;;29.91;32.35;99460.91;4188662;28;20239;-68
2022/06/14 17:51:28;;;;;;;2.17;1.60;;;;;;;29.92;32.21;99468.03;4179467;28;20223;-68
2022/06/14 17:54:15;;;;;;;5.50;1.85;;;;;;;29.25;33.27;99466.09;4186424;28;20299;-68
2022/06/14 17:56:52;;;;;;;3.03;2.03;;;;;;;28.90;33.05;99463.44;4186291;28;20714;-68
2022/06/14 17:59:25;;;;;;;6.55;2.47;;;;;;;29.73;32.74;99446.13;4189279;28;20752;-68
2022/06/14 18:01:51;;;;;;;2.88;2.25;;;;;;;29.90;32.75;99451.91;4192603;28;20229;-68
2022/06/14 18:04:38;;;;;;;5.00;2.30;;;;;;;29.47;32.46;99463.66;4187896;28;20230;-68
2022/06/14 18:07:01;;;;;;;4.22;2.67;;;;;;;29.19;32.66;99467.25;4190675;28;20239;-69
2022/06/14 18:09:02;;;;;;;3.95;2.20;;;;;;;29.72;32.35;99458.97;4192375;28;20658;-69
2022/06/14 18:11:09;;;;;;;3.88;2.15;;;;;;;29.23;32.73;99462.84;4181055;28;20239;-69
2022/06/14 18:13:24;;;;;;;4.32;2.33;;;;;;;29.39;32.74;99464.31;4194119;28;20239;-69
2022/06/14 18:15:54;;;;;;;4.97;2.30;;;;;;;29.53;32.90;99458.94;4195599;28;20662;-68
2022/06/14 18:17:58;;;;;;;2.70;1.90;;;;;;;29.60;32.93;99450.34;4186608;28;20258;-69
2022/06/14 18:22:37;;;;;;;3.72;1.73;;;;;;;30.17;32.66;99444.94;4193216;28;20352;-69
2022/06/14 18:24:59;;;;;;;3.50;2.05;;;;;;;29.80;33.27;99444.63;4194507;28;20797;-69
2022/06/14 18:27:01;;;;;;;2.95;2.17;;;;;;;29.09;33.79;99451.75;4189452;28;20265;-69
2022/06/14 18:29:15;;;;;;;3.28;1.98;;;;;;;29.87;32.94;99444.25;4188689;28;20285;-69
2022/06/14 18:31:38;;;;;;;4.57;2.10;;;;;;;29.44;33.24;99442.34;4170050;28;20235;-77
2022/06/14 18:33:53;;;;;;;4.25;2.35;;;;;;;28.58;33.63;99447.56;4191458;28;20231;-69
2022/06/14 18:35:55;;;;;;;3.85;1.90;;;;;;;29.66;33.07;99441.78;4186675;28;20235;-69
2022/06/14 18:37:56;;;;;;;7.07;2.15;;;;;;;29.46;32.87;99450.25;4194508;28;20250;-69
2022/06/14 18:40:05;;;;;;;2.22;1.52;;;;;;;29.69;33.50;99456.00;4182870;28;20232;-69
2022/06/14 18:42:21;;;;;;;5.03;2.13;;;;;;;30.25;32.93;99441.53;4196293;28;20901;-69
2022/06/14 18:44:28;;;;;;;5.47;2.20;;;;;;;29.56;33.74;99452.88;4186181;28;20239;-69
2022/06/14 18:46:40;;;;;;;4.18;2.17;;;;;;;29.40;34.28;99444.00;4196493;28;20770;-69
2022/06/14 18:48:44;;;;;;;2.65;1.70;;;;;;;28.69;35.02;99449.13;4197726;28;20235;-69
2022/06/14 18:50:54;;;;;;;2.65;1.90;;;;;;;29.56;33.83;99435.63;4193877;28;20608;-68
2022/06/14 18:53:01;;;;;;;4.63;2.20;;;;;;;28.90;34.55;99440.75;4192992;28;20263;-68
2022/06/14 18:55:03;;;;;;;3.78;2.30;;;;;;;29.27;33.90;99440.06;4193455;28;20356;-68
2022/06/14 18:57:05;;;;;;;5.47;2.20;;;;;;;28.78;35.13;99441.13;4201633;28;21007;-68
2022/06/14 18:59:14;;;;;;;3.05;1.85;;;;;;;28.39;35.70;99432.94;4186795;28;20775;-68
2022/06/14 19:01:24;;;;;;;4.57;2.38;;;;;;;28.77;34.94;99414.88;4187782;28;20207;-69
2022/06/14 19:03:26;;;;;;;3.90;2.25;;;;;;;28.97;34.38;99426.69;4185802;28;20245;-69
2022/06/14 19:05:40;;;;;;;4.50;2.60;;;;;;;28.99;34.96;99428.03;4194451;28;20239;-68
2022/06/14 19:08:01;;;;;;;3.15;2.13;;;;;;;29.14;34.22;99431.72;4194608;28;20718;-69
2022/06/14 19:10:32;;;;;;;3.08;2.10;;;;;;;28.02;35.94;99431.53;4190134;28;20353;-68
2022/06/14 19:13:02;;;;;;;4.75;2.97;;;;;;;28.09;35.78;99405.53;4188623;28;20318;-68
2022/06/14 19:15:40;;;;;;;3.88;2.25;;;;;;;28.56;34.93;99411.47;4194432;28;20281;-69
2022/06/14 19:18:24;;;;;;;5.40;2.75;;;;;;;28.63;34.93;99411.97;4193235;28;20299;-69
2022/06/14 19:21:04;;;;;;;1603.80;782.38;;;;;;;29.23;33.89;99419.84;4190697;28;20219;-69
2022/06/14 19:23:24;;;;;;;3.90;2.83;;;;;;;28.74;34.24;99435.38;4145110;28;20797;-69
2022/06/14 19:25:45;;;;;;;5.18;2.72;;;;;;;28.46;34.81;99439.75;4180066;28;20274;-68
2022/06/14 19:28:05;;;;;;;5.82;2.85;;;;;;;28.70;34.44;99439.81;4186979;28;20695;-69
2022/06/14 19:30:38;;;;;;;7.43;2.80;;;;;;;28.44;34.69;99430.16;4180354;28;20235;-67
2022/06/14 19:33:00;;;;;;;24.48;3.50;;;;;;;28.10;34.60;99439.94;4181804;28;20232;-68
2022/06/14 19:35:44;;;;;;;5.20;2.65;;;;;;;28.81;33.95;99437.78;4185361;28;20231;-68
2022/06/14 19:37:50;;;;;;;6.65;3.03;;;;;;;28.43;34.39;99442.19;4192386;28;20228;-68
2022/06/14 19:40:00;;;;;;;6.50;3.08;;;;;;;28.26;34.36;99448.91;4188752;28;20303;-68
2022/06/14 19:42:08;;;;;;;5.78;2.90;;;;;;;28.53;34.60;99450.34;4200708;28;20230;-68
2022/06/14 19:44:16;;;;;;;4.53;3.00;;;;;;;28.32;34.50;99442.28;4195010;28;20870;-73
2022/06/14 19:46:40;;;;;;;4.82;2.55;;;;;;;28.55;34.07;99437.19;4196994;28;20226;-71
2022/06/14 19:51:10;;;;;;;6.60;3.10;;;;;;;28.25;34.59;99450.00;4193965;28;20231;-72
2022/06/14 19:53:17;;;;;;;4.15;2.50;;;;;;;28.11;35.09;99443.53;4170090;28;20232;-74
2022/06/14 19:55:36;;;;;;;6.47;2.72;;;;;;;28.42;34.54;99443.31;4189414;28;20864;-74
2022/06/14 19:57:41;;;;;;;5.10;2.85;;;;;;;27.59;35.42;99451.97;4181641;28;20706;-70
2022/06/14 19:59:53;;;;;;;4.28;2.83;;;;;;;28.29;34.71;99442.03;4183340;28;20718;-73
2022/06/14 20:02:03;;;;;;;5.68;3.00;;;;;;;27.68;35.52;99446.75;4187778;28;20238;-71
2022/06/14 20:04:17;;;;;;;4.13;2.72;;;;;;;27.40;35.63;99445.50;4191035;28;20249;-70
2022/06/14 20:06:31;;;;;;;6.03;3.20;;;;;;;27.99;35.08;99444.69;4201595;28;20257;-71
2022/06/14 20:08:38;;;;;;;6.80;3.50;;;;;;;27.19;35.40;99456.47;4195737;28;20765;-71
2022/06/14 20:10:50;;;;;;;6.50;3.53;;;;;;;27.86;35.04;99445.31;4191900;28;20725;-69
2022/06/14 20:12:54;;;;;;;5.50;2.80;;;;;;;27.57;34.97;99456.09;4190837;28;20706;-71
2022/06/14 20:15:10;;;;;;;4.60;3.05;;;;;;;27.29;35.66;99449.34;4178050;28;20232;-71
2022/06/14 20:17:19;;;;;;;6.72;2.53;;;;;;;26.49;36.38;99450.78;4192533;28;20223;-70
2022/06/14 20:19:23;;;;;;;9.23;2.60;;;;;;;27.58;35.32;99447.63;4196530;28;20257;-68
2022/06/14 20:21:26;;;;;;;5.97;2.88;;;;;;;27.17;35.59;99452.41;4191109;28;21731;-72
2022/06/14 20:23:30;;;;;;;5.95;3.63;;;;;;;27.34;35.45;99454.81;4201707;28;20703;-68
2022/06/14 20:25:33;;;;;;;7.60;3.40;;;;;;;27.47;35.34;99459.66;4194490;28;20963;-68
2022/06/14 20:27:43;;;;;;;14.27;3.25;;;;;;;27.25;35.86;99463.56;4193399;28;20253;-66
2022/06/14 20:29:48;;;;;;;9.43;3.05;;;;;;;26.77;36.17;99465.78;4193405;28;20234;-67
2022/06/14 20:31:58;;;;;;;3.83;2.78;;;;;;;26.02;36.77;99468.97;4190440;28;20227;-66
2022/06/14 20:34:08;;;;;;;6.45;2.90;;;;;;;27.07;36.08;99447.78;4181396;28;20227;-67
2022/06/14 20:36:24;;;;;;;4.25;3.00;;;;;;;27.03;36.19;99455.66;4196706;28;20234;-67
2022/06/14 20:38:47;;;;;;;4.82;2.95;;;;;;;27.02;36.04;99459.47;4195317;28;20334;-68
2022/06/14 20:40:51;;;;;;;7.30;3.08;;;;;;;26.83;36.16;99466.63;4197576;28;20231;-67
2022/06/14 20:42:54;;;;;;;4.57;2.65;;;;;;;26.71;35.85;99467.72;4195332;28;20234;-68
2022/06/14 20:45:03;;;;;;;8.32;3.20;;;;;;;26.42;36.89;99459.25;4192438;28;20293;-68
2022/06/14 20:47:07;;;;;;;7.90;3.58;;;;;;;26.86;36.29;99453.25;4193735;28;20226;-67
2022/06/14 20:49:11;;;;;;;6.95;3.20;;;;;;;26.47;36.46;99467.41;4165226;28;20235;-67
2022/06/14 20:51:15;;;;;;;5.47;3.03;;;;;;;26.07;36.61;99469.00;4192787;28;20273;-67
2022/06/14 20:53:17;;;;;;;8.10;3.03;;;;;;;26.93;36.15;99447.50;4191264;28;20251;-67
2022/06/14 20:55:34;;;;;;;7.90;3.15;;;;;;;26.46;36.46;99446.69;4193014;28;20210;-67
2022/06/14 20:57:42;;;;;;;7.78;2.72;;;;;;;26.75;36.02;99456.25;4193406;28;20719;-68
2022/06/14 20:59:45;;;;;;;9.38;3.45;;;;;;;26.53;36.66;99460.88;4197608;28;20245;-67
2022/06/14 21:01:47;;;;;;;5.90;2.85;;;;;;;26.73;36.26;99453.81;4193234;28;20290;-68
2022/06/14 21:03:55;;;;;;;4.82;2.83;;;;;;;26.54;36.24;99461.72;4192640;28;20253;-68
2022/06/14 21:05:57;;;;;;;8.07;3.35;;;;;;;25.56;37.36;99445.13;4186798;28;20834;-68
2022/06/14 21:07:59;;;;;;;8.23;3.30;;;;;;;26.26;36.50;99433.06;4197636;28;20304;-67
2022/06/14 21:10:05;;;;;;;6.03;3.38;;;;;;;25.63;37.33;99438.59;4195404;28;20293;-67
2022/06/14 21:12:13;;;;;;;8.23;3.55;;;;;;;25.59;37.16;99441.88;4188610;28;20235;-67
2022/06/14 21:14:19;;;;;;;8.65;3.40;;;;;;;26.00;36.71;99424.84;4193057;28;20230;-69
2022/06/14 21:16:26;;;;;;;6.80;3.00;;;;;;;26.36;36.74;99433.06;4187998;28;20232;-68
2022/06/14 21:18:34;;;;;;;6.18;3.33;;;;;;;25.72;37.14;99440.53;4200198;28;20313;-67
2022/06/14 21:20:36;;;;;;;4.65;3.30;;;;;;;25.66;37.50;99427.16;4192783;28;20227;-69
2022/06/14 21:22:43;;;;;;;6.82;3.25;;;;;;;25.46;37.77;99442.38;4197332;28;20792;-68
2022/06/14 21:24:55;;;;;;;5.63;3.10;;;;;;;24.83;38.27;99444.94;4196661;28;20226;-68
2022/06/14 21:27:08;;;;;;;7.82;3.15;;;;;;;25.68;37.54;99425.84;4188070;28;20280;-68
2022/06/14 21:29:11;;;;;;;4.10;2.92;;;;;;;25.90;37.22;99420.16;4177294;28;20232;-68
2022/06/14 21:31:19;;;;;;;4.47;3.03;;;;;;;25.58;37.69;99428.53;4194814;28;20207;-69
2022/06/14 21:33:22;;;;;;;8.90;3.50;;;;;;;25.60;37.21;99432.59;4196015;28;20269;-69
2022/06/14 21:35:39;;;;;;;9.27;3.13;;;;;;;24.98;37.95;99447.78;4172755;28;20216;-73
2022/06/14 21:37:44;;;;;;;7.07;3.15;;;;;;;25.12;37.86;99437.28;4191478;28;20265;-68
2022/06/14 21:39:45;;;;;;;3.80;3.08;;;;;;;24.69;38.21;99445.38;4193580;28;20230;-69
2022/06/14 21:41:54;;;;;;;5.95;2.80;;;;;;;24.79;38.15;99428.34;4189449;28;20249;-69
2022/06/14 21:43:59;;;;;;;5.05;3.17;;;;;;;25.45;37.46;99424.38;4195552;28;20243;-68
2022/06/14 21:46:03;;;;;;;7.72;3.25;;;;;;;25.16;37.88;99435.66;4184063;28;20234;-69
2022/06/14 21:48:08;;;;;;;6.75;3.10;;;;;;;25.62;37.20;99432.34;4194950;28;20235;-69
2022/06/14 21:50:12;;;;;;;7.05;3.30;;;;;;;25.24;37.67;99453.38;4194423;28;20289;-69
2022/06/14 21:52:19;;;;;;;4.90;3.10;;;;;;;25.82;36.81;99441.66;4195332;28;20738;-69
2022/06/14 21:54:24;;;;;;;5.35;2.95;;;;;;;25.13;37.65;99443.53;4188604;28;20698;-69
2022/06/14 21:56:29;;;;;;;7.20;2.92;;;;;;;25.38;37.09;99446.41;4190579;28;20227;-69
2022/06/14 21:58:36;;;;;;;5.97;3.00;;;;;;;25.38;37.11;99448.31;4191805;28;20228;-68
2022/06/14 22:00:44;;;;;;;5.90;3.25;;;;;;;24.88;38.03;99445.00;4188053;28;20899;-69
2022/06/14 22:02:49;;;;;;;6.40;3.15;;;;;;;24.93;37.73;99457.81;4188565;28;20266;-70